BIMS weather

Tungubakkar Airport
Tungubakkar, Capital Region, Iceland

Public forecast

Using degrees Celsius for public forecast. Weather courtesy of forecast.io.

Closest aviation weather report (METAR) to Tungubakkar Airport

Closest report is Reykjavik Airport, 6.8 nm (12.6 km) WSW. Retrieved 2020/06/06 22:00 UTC (33 minutes ago):

BIRK 062200Z 32007KT CAVOK 09/01 Q1018

Closest aviation forecast (TAF) to Tungubakkar Airport

Forecast is more than 6 hours old.

Closest forecast is Reykjavik Airport, 6.8 nm (12.6 km) WSW. Retrieved 2020/06/06 12:50 UTC (10 hours ago):

TAF BIRK 061043Z 0612/0712 31012KT CAVOK TX13/0712Z TN07/0706Z BECMG 0623/0701 VRB02KT BECMG 0710/0712 18010KT SCT045